createdAt,value
2022-09-12T00:00:41.738Z,13.20
2022-09-12T00:05:51.367Z,13.20
2022-09-12T00:10:58.542Z,13.00
2022-09-12T00:16:09.340Z,13.00
2022-09-12T00:21:20.416Z,13.00
2022-09-12T00:26:27.918Z,13.00
2022-09-12T00:31:35.807Z,12.80
2022-09-12T00:36:45.330Z,12.80
2022-09-12T00:41:52.329Z,12.80
2022-09-12T00:47:14.509Z,12.60
2022-09-12T00:52:35.137Z,12.70
2022-09-12T00:58:01.240Z,12.80
2022-09-12T01:03:14.419Z,12.70
2022-09-12T01:08:23.055Z,12.70
2022-09-12T01:13:31.002Z,12.70
2022-09-12T01:19:15.485Z,12.70
2022-09-12T01:24:37.915Z,12.70
2022-09-12T01:30:23.680Z,12.70
2022-09-12T01:35:52.296Z,12.70
2022-09-12T01:41:13.238Z,12.70
2022-09-12T01:46:25.367Z,13.20
2022-09-12T01:51:39.414Z,13.20
2022-09-12T01:56:48.909Z,13.00
2022-09-12T02:02:07.180Z,13.00
2022-09-12T02:07:24.052Z,12.80
2022-09-12T02:12:35.150Z,12.60
2022-09-12T02:17:48.690Z,12.50
2022-09-12T02:22:57.976Z,12.40
2022-09-12T02:28:12.202Z,12.40
2022-09-12T02:33:29.257Z,12.40
2022-09-12T02:38:48.196Z,12.50
2022-09-12T02:43:56.808Z,12.50
2022-09-12T02:49:03.712Z,12.30
2022-09-12T02:54:12.331Z,12.40
2022-09-12T02:59:22.598Z,12.50
2022-09-12T03:05:10.255Z,12.50
2022-09-12T03:10:36.377Z,12.50
2022-09-12T03:16:29.071Z,12.30
2022-09-12T03:21:52.587Z,12.40
2022-09-12T03:27:12.853Z,12.40
2022-09-12T03:32:19.532Z,12.40
2022-09-12T03:37:26.202Z,12.20
2022-09-12T03:42:32.883Z,12.00
2022-09-12T03:47:39.507Z,12.00
2022-09-12T03:52:46.207Z,12.00
2022-09-12T03:57:58.045Z,12.00
2022-09-12T04:03:04.737Z,11.90
2022-09-12T04:08:12.385Z,11.80
2022-09-12T04:13:19.001Z,11.70
2022-09-12T04:18:25.687Z,11.70
2022-09-12T04:23:32.440Z,11.70
2022-09-12T04:28:42.777Z,11.80
2022-09-12T04:33:49.710Z,11.90
2022-09-12T04:38:56.920Z,12.00
2022-09-12T04:44:13.364Z,11.90
2022-09-12T04:49:19.961Z,12.00
2022-09-12T04:54:26.879Z,12.00
2022-09-12T04:59:33.555Z,12.00
2022-09-12T05:04:40.225Z,12.00
2022-09-12T05:09:47.000Z,11.90
2022-09-12T05:14:53.705Z,12.10
2022-09-12T05:20:00.995Z,12.00
2022-09-12T05:25:10.167Z,12.10
2022-09-12T05:30:16.821Z,12.30
2022-09-12T05:35:23.463Z,12.10
2022-09-12T05:40:30.126Z,12.20
2022-09-12T05:45:36.887Z,12.20
2022-09-12T05:50:44.144Z,12.40
2022-09-12T05:55:50.878Z,12.40
2022-09-12T06:00:57.824Z,12.40
2022-09-12T06:06:06.625Z,12.30
2022-09-12T06:11:17.299Z,12.40
2022-09-12T06:16:31.288Z,12.50
2022-09-12T06:21:37.960Z,12.50
2022-09-12T06:26:44.240Z,12.30
2022-09-12T06:31:50.919Z,12.50
2022-09-12T06:36:58.314Z,12.60
2022-09-12T06:42:04.995Z,12.60
2022-09-12T06:47:12.706Z,12.80
2022-09-12T06:52:19.400Z,13.10
2022-09-12T07:03:51.607Z,13.50
2022-09-12T07:09:01.781Z,13.60
2022-09-12T07:14:12.245Z,13.70
2022-09-12T07:19:18.943Z,13.70
2022-09-12T07:24:25.626Z,13.80
2022-09-12T07:29:37.093Z,14.10
2022-09-12T07:34:41.994Z,14.40
2022-09-12T07:39:48.695Z,14.70
2022-09-12T07:44:55.297Z,15.10
2022-09-12T07:50:02.331Z,15.50
2022-09-12T07:55:09.372Z,15.90
2022-09-12T08:00:17.691Z,16.20
2022-09-12T08:05:24.354Z,16.20
2022-09-12T08:10:31.074Z,16.30
2022-09-12T08:15:37.830Z,16.40
2022-09-12T08:20:44.510Z,16.50
2022-09-12T08:25:51.197Z,16.50
2022-09-12T08:31:03.459Z,16.60
2022-09-12T08:36:14.384Z,16.60
2022-09-12T08:41:31.948Z,16.80
2022-09-12T08:47:01.391Z,16.60
2022-09-12T08:52:15.119Z,16.90
2022-09-12T08:57:21.468Z,17.00
2022-09-12T09:02:53.349Z,17.30
2022-09-12T09:08:19.501Z,17.20
2022-09-12T09:14:12.365Z,17.40
2022-09-12T09:19:33.500Z,17.20
2022-09-12T09:24:44.810Z,17.40
2022-09-12T09:29:56.056Z,17.50
2022-09-12T09:35:25.040Z,17.70
2022-09-12T09:40:54.070Z,18.30
2022-09-12T09:46:01.460Z,18.60
2022-09-12T09:51:09.773Z,18.70
2022-09-12T09:56:29.938Z,17.90
2022-09-12T10:01:37.568Z,17.90
2022-09-12T10:06:44.272Z,17.80
2022-09-12T10:11:52.984Z,18.00
2022-09-12T10:17:00.886Z,18.50
2022-09-12T10:22:11.043Z,19.40
2022-09-12T10:27:31.035Z,19.80
2022-09-12T10:32:41.988Z,19.40
2022-09-12T10:38:08.397Z,19.60
2022-09-12T10:43:38.589Z,19.50
2022-09-12T10:48:48.329Z,19.50
2022-09-12T10:54:02.724Z,20.60
2022-09-12T10:59:32.066Z,21.30
2022-09-12T11:05:15.952Z,21.00
2022-09-12T11:10:44.381Z,21.20
2022-09-12T11:16:14.683Z,21.20
2022-09-12T11:21:54.479Z,20.80
2022-09-12T11:27:34.045Z,20.70
2022-09-12T11:33:06.199Z,20.60
2022-09-12T11:38:32.217Z,20.90
2022-09-12T11:43:49.232Z,20.40
2022-09-12T11:49:16.002Z,20.60
2022-09-12T11:54:39.154Z,21.60
2022-09-12T12:00:10.866Z,21.10
2022-09-12T12:05:45.466Z,21.40
2022-09-12T12:11:04.549Z,21.30
2022-09-12T12:16:26.720Z,21.00
2022-09-12T12:21:45.812Z,20.40
2022-09-12T12:27:05.120Z,19.80
2022-09-12T12:32:20.177Z,20.00
2022-09-12T12:37:34.348Z,19.80
2022-09-12T12:42:48.267Z,19.80
2022-09-12T12:48:07.687Z,19.90
2022-09-12T12:53:25.227Z,20.90
2022-09-12T12:58:46.387Z,20.90
2022-09-12T13:04:06.756Z,21.20
2022-09-12T13:09:35.925Z,20.70
2022-09-12T13:14:59.028Z,20.80
2022-09-12T13:20:28.936Z,20.90
2022-09-12T13:25:35.665Z,21.00
2022-09-12T13:30:49.855Z,20.90
2022-09-12T13:36:40.552Z,21.10
2022-09-12T13:42:07.978Z,21.40
2022-09-12T13:47:19.113Z,21.50
2022-09-12T13:52:30.112Z,21.80
2022-09-12T13:57:41.880Z,21.90
2022-09-12T14:02:52.767Z,22.10
2022-09-12T14:08:05.014Z,21.60
2022-09-12T14:13:19.636Z,21.40
2022-09-12T14:18:32.648Z,21.80
2022-09-12T14:23:43.387Z,21.90
2022-09-12T14:28:51.284Z,21.20
2022-09-12T14:34:15.677Z,21.10
2022-09-12T14:39:41.554Z,21.10
2022-09-12T14:45:08.922Z,21.50
2022-09-12T14:50:30.325Z,21.10
2022-09-12T14:55:47.549Z,20.90
2022-09-12T15:01:10.735Z,20.70
2022-09-12T15:06:37.747Z,20.60
2022-09-12T15:11:44.444Z,20.40
2022-09-12T15:16:51.131Z,20.60
2022-09-12T15:21:57.848Z,20.40
2022-09-12T15:27:06.102Z,20.30
2022-09-12T15:32:15.827Z,20.40
2022-09-12T15:37:26.711Z,20.20
2022-09-12T15:42:33.387Z,20.00
2022-09-12T15:47:40.101Z,19.90
2022-09-12T15:52:47.054Z,20.00
2022-09-12T15:57:53.972Z,19.80
2022-09-12T16:03:01.215Z,19.60
2022-09-12T16:08:07.873Z,19.70
2022-09-12T16:13:14.585Z,19.70
2022-09-12T16:18:21.413Z,19.50
2022-09-12T16:23:28.080Z,19.30
2022-09-12T16:28:35.366Z,19.20
2022-09-12T16:33:42.642Z,18.70
2022-09-12T16:38:53.346Z,18.60
2022-09-12T16:44:00.028Z,18.50
2022-09-12T16:49:08.607Z,18.40
2022-09-12T16:54:16.197Z,18.10
2022-09-12T16:59:22.852Z,17.60
2022-09-12T17:04:29.954Z,17.60
2022-09-12T17:09:37.008Z,17.50
2022-09-12T17:14:43.686Z,17.50
2022-09-12T17:19:50.367Z,17.30
2022-09-12T17:24:57.911Z,17.20
2022-09-12T17:30:05.914Z,16.80
2022-09-12T17:35:12.914Z,16.80
2022-09-12T17:40:19.652Z,16.70
2022-09-12T17:45:27.098Z,16.60
2022-09-12T17:50:39.514Z,16.40
2022-09-12T17:55:46.341Z,16.30
2022-09-12T18:01:10.639Z,16.40
2022-09-12T18:06:17.073Z,16.50
2022-09-12T18:11:23.447Z,16.70
2022-09-12T18:16:31.686Z,16.60
2022-09-12T18:21:39.324Z,16.60
2022-09-12T18:26:46.014Z,16.30
2022-09-12T18:31:53.289Z,16.20
2022-09-12T18:37:01.597Z,16.20
2022-09-12T18:42:08.343Z,16.10
2022-09-12T18:47:15.024Z,16.10
2022-09-12T18:52:21.841Z,16.10
2022-09-12T18:57:30.120Z,16.10
2022-09-12T19:02:36.873Z,16.00
2022-09-12T19:07:44.854Z,15.90
2022-09-12T19:12:52.066Z,15.90
2022-09-12T19:17:58.779Z,15.90
2022-09-12T19:23:05.488Z,15.60
2022-09-12T19:28:14.102Z,15.60
2022-09-12T19:33:21.994Z,15.50
2022-09-12T19:38:29.792Z,15.40
2022-09-12T19:43:38.576Z,15.20
2022-09-12T19:48:46.498Z,15.10
2022-09-12T19:53:55.838Z,15.10
2022-09-12T19:59:02.582Z,15.00
2022-09-12T20:04:09.231Z,15.20
2022-09-12T20:09:15.890Z,15.00
2022-09-12T20:14:22.728Z,15.00
2022-09-12T20:19:31.062Z,14.80
2022-09-12T20:24:38.287Z,14.90
2022-09-12T20:29:45.088Z,14.90
2022-09-12T20:34:52.194Z,14.90
2022-09-12T20:40:00.189Z,14.80
2022-09-12T20:45:08.527Z,14.90
2022-09-12T20:50:16.024Z,14.70
2022-09-12T20:55:22.689Z,14.40
2022-09-12T21:00:30.819Z,14.50
2022-09-12T21:05:38.212Z,14.50
2022-09-12T21:10:47.227Z,14.50
2022-09-12T21:16:15.352Z,14.30
2022-09-12T21:21:22.892Z,14.10
2022-09-12T21:26:30.401Z,14.30
2022-09-12T21:31:39.765Z,14.00
2022-09-12T21:36:46.466Z,14.00
2022-09-12T21:41:54.815Z,14.00
2022-09-12T21:47:02.066Z,13.80
2022-09-12T21:52:08.684Z,13.90
2022-09-12T21:57:16.492Z,14.00
2022-09-12T22:02:23.421Z,13.80
2022-09-12T22:07:30.260Z,14.10
2022-09-12T22:12:42.838Z,13.90
2022-09-12T22:17:48.926Z,14.00
2022-09-12T22:23:14.248Z,14.00
2022-09-12T22:28:24.493Z,14.40
2022-09-12T22:33:31.467Z,14.40
2022-09-12T22:38:39.658Z,14.40
2022-09-12T22:43:50.352Z,14.50
2022-09-12T22:48:58.767Z,14.60
2022-09-12T22:54:06.702Z,14.70
2022-09-12T22:59:15.151Z,14.60
2022-09-12T23:04:21.877Z,14.60
2022-09-12T23:09:34.641Z,14.40
2022-09-12T23:14:38.336Z,14.50
2022-09-12T23:19:48.878Z,14.30
2022-09-12T23:24:56.350Z,14.10
2022-09-12T23:30:03.518Z,14.20
2022-09-12T23:35:11.243Z,14.00
2022-09-12T23:40:19.773Z,14.10
2022-09-12T23:45:27.360Z,13.70
2022-09-12T23:50:35.042Z,13.60
2022-09-12T23:55:41.973Z,13.70
